Flight Briefing for CPX13

Departure Arrival
Incheon International Airport (RKSI)
Click to view FAA NOTAMS
Ted Stevens Anchorage International Airport (PANC)
Click to view FAA NOTAMS
Departure Time Arrival Time
N/A N/A
Aircraft Distance
B747-400BCF 3793nm
Departure METAR Arrival METAR
RKSI 181530Z 02002KT CAVOK 03/M01 Q1017 NOSIG PANC 181453Z 13008KT 10SM FEW060 BKN100 BKN210 04/01 A2937 RMK AO2 SLP948 T00440006 51013
Suggested Route
EGOBA1L EGOBA G597 KAE G597 LANAT Y51 KAGIS A590 SELDM A590 PORGE A590 HAMND NEELL6


View recent IFR Routes data
Notes



Charts and Procedures

Charts for RKSI
No chart available
Charts for PANC
No chart available

Windy.com Weather Map